createdAt,value
2018-06-08T00:00:51.721Z,20.63
2018-06-08T00:03:18.837Z,20.23
2018-06-08T00:05:45.955Z,19.83
2018-06-08T00:08:13.072Z,20.50
2018-06-08T00:10:46.953Z,18.77
2018-06-08T00:13:14.077Z,17.63
2018-06-08T00:15:41.225Z,17.17
2018-06-08T00:18:08.382Z,16.10
2018-06-08T00:20:35.493Z,16.30
2018-06-08T00:23:02.629Z,16.97
2018-06-08T00:25:29.777Z,17.07
2018-06-08T00:27:56.933Z,18.20
2018-06-08T00:30:24.224Z,18.40
2018-06-08T00:32:51.355Z,18.67
2018-06-08T00:35:18.486Z,18.90
2018-06-08T00:37:45.637Z,17.50
2018-06-08T00:40:12.773Z,17.53
2018-06-08T00:42:39.925Z,17.77
2018-06-08T00:45:07.046Z,18.20
2018-06-08T00:47:34.156Z,19.60
2018-06-08T00:50:01.314Z,18.50
2018-06-08T00:52:28.446Z,19.17
2018-06-08T00:54:55.568Z,19.37
2018-06-08T00:57:22.698Z,19.70
2018-06-08T00:59:49.838Z,20.50
2018-06-08T01:02:16.956Z,19.03
2018-06-08T01:04:44.102Z,20.43
2018-06-08T01:07:11.232Z,19.60
2018-06-08T01:09:38.345Z,20.90
2018-06-08T01:12:05.573Z,19.10
2018-06-08T01:14:33.642Z,19.60
2018-06-08T01:17:00.896Z,18.80
2018-06-08T01:19:28.433Z,19.30
2018-06-08T01:21:55.545Z,17.77
2018-06-08T01:24:22.725Z,16.47
2018-06-08T01:26:49.867Z,18.10
2018-06-08T01:29:16.970Z,18.60
2018-06-08T01:31:44.090Z,19.53
2018-06-08T01:34:11.222Z,22.87
2018-06-08T01:36:38.553Z,23.20
2018-06-08T01:39:06.918Z,23.87
2018-06-08T01:41:35.291Z,24.80
2018-06-08T01:44:02.485Z,26.33
2018-06-08T01:46:29.612Z,27.47
2018-06-08T01:48:56.748Z,26.70
2018-06-08T01:51:23.973Z,29.93
2018-06-08T01:53:51.089Z,28.40
2018-06-08T01:56:18.206Z,27.93
2018-06-08T01:58:45.310Z,30.33
2018-06-08T02:01:12.421Z,28.40
2018-06-08T02:03:39.541Z,27.70
2018-06-08T02:06:06.649Z,26.10
2018-06-08T02:10:13.332Z,26.70
2018-06-08T02:12:40.489Z,28.47
2018-06-08T02:15:07.624Z,25.90
2018-06-08T02:20:08.342Z,28.10
2018-06-08T02:22:35.512Z,26.80
2018-06-08T02:25:02.666Z,28.00
2018-06-08T02:27:29.833Z,29.93
2018-06-08T02:29:56.953Z,28.70
2018-06-08T02:32:24.094Z,31.50
2018-06-08T02:34:51.245Z,31.00
2018-06-08T02:37:18.376Z,27.33
2018-06-08T02:39:45.484Z,26.33
2018-06-08T02:42:12.640Z,25.77
2018-06-08T02:44:39.739Z,28.40
2018-06-08T02:47:06.949Z,29.00
2018-06-08T02:49:34.065Z,26.83
2018-06-08T02:52:01.202Z,27.30
2018-06-08T02:54:28.454Z,26.07
2018-06-08T02:56:55.577Z,25.27
2018-06-08T02:59:22.685Z,25.60
2018-06-08T03:01:49.806Z,23.80
2018-06-08T03:04:16.944Z,25.53
2018-06-08T03:06:44.138Z,24.83
2018-06-08T03:09:11.324Z,26.73
2018-06-08T03:11:38.495Z,26.80
2018-06-08T03:14:05.600Z,25.20
2018-06-08T03:16:34.288Z,27.63
2018-06-08T03:19:01.410Z,26.80
2018-06-08T03:21:28.517Z,25.23
2018-06-08T03:23:55.631Z,26.33
2018-06-08T03:26:22.733Z,29.07
2018-06-08T03:28:49.852Z,30.23
2018-06-08T03:31:16.992Z,29.17
2018-06-08T03:33:44.177Z,30.00
2018-06-08T03:36:11.307Z,32.40
2018-06-08T03:38:38.442Z,31.87
2018-06-08T03:41:05.560Z,30.93
2018-06-08T03:43:32.678Z,31.63
2018-06-08T03:45:59.814Z,31.10
2018-06-08T03:48:26.911Z,30.60
2018-06-08T03:50:54.030Z,30.93
2018-06-08T03:53:21.176Z,31.70
2018-06-08T03:55:48.285Z,30.83
2018-06-08T03:58:15.728Z,32.70
2018-06-08T04:00:42.885Z,30.47
2018-06-08T04:03:10.032Z,30.70
2018-06-08T04:05:37.146Z,30.47
2018-06-08T04:08:04.256Z,28.80
2018-06-08T04:10:31.361Z,28.60
2018-06-08T04:12:58.485Z,26.37
2018-06-08T04:15:25.580Z,27.30
2018-06-08T04:17:52.685Z,25.40
2018-06-08T04:20:20.122Z,26.17
2018-06-08T04:22:47.276Z,25.60
2018-06-08T04:25:14.388Z,23.17
2018-06-08T04:27:41.504Z,23.30
2018-06-08T04:30:08.655Z,24.70
2018-06-08T04:32:35.785Z,25.87
2018-06-08T04:35:02.913Z,27.40
2018-06-08T04:37:30.034Z,29.63
2018-06-08T04:39:57.208Z,28.73
2018-06-08T04:42:24.414Z,30.00
2018-06-08T04:44:51.561Z,31.27
2018-06-08T04:47:18.681Z,29.40
2018-06-08T04:49:45.782Z,30.43
2018-06-08T04:52:12.905Z,29.63
2018-06-08T04:54:40.082Z,29.10
2018-06-08T04:57:07.202Z,29.07
2018-06-08T04:59:34.407Z,28.83
2018-06-08T05:02:01.801Z,28.03
2018-06-08T05:04:28.946Z,27.80
2018-06-08T05:06:56.061Z,29.53
2018-06-08T05:09:23.210Z,29.37
2018-06-08T05:11:50.328Z,29.17
2018-06-08T05:14:17.453Z,31.70
2018-06-08T05:16:44.652Z,31.20
2018-06-08T05:19:11.773Z,31.13
2018-06-08T05:21:38.998Z,33.03
2018-06-08T05:24:06.113Z,32.87
2018-06-08T05:26:33.221Z,34.50
2018-06-08T05:29:00.345Z,34.77
2018-06-08T05:31:27.449Z,34.83
2018-06-08T05:33:54.556Z,35.13
2018-06-08T05:36:21.682Z,34.57
2018-06-08T05:38:48.816Z,32.53
2018-06-08T05:41:15.950Z,33.50
2018-06-08T05:43:43.068Z,34.80
2018-06-08T05:46:10.176Z,34.67
2018-06-08T05:48:37.405Z,34.70
2018-06-08T05:51:04.414Z,35.60
2018-06-08T05:53:31.521Z,36.37
2018-06-08T05:55:58.646Z,35.20
2018-06-08T05:58:25.780Z,36.33
2018-06-08T06:00:52.918Z,36.67
2018-06-08T06:03:20.025Z,33.87
2018-06-08T06:05:47.146Z,38.83
2018-06-08T06:08:14.280Z,38.00
2018-06-08T06:10:41.459Z,38.77
2018-06-08T06:13:08.567Z,39.60
2018-06-08T06:15:35.698Z,38.53
2018-06-08T06:18:02.805Z,40.67
2018-06-08T06:20:29.945Z,39.17
2018-06-08T06:22:57.083Z,40.63
2018-06-08T06:25:24.325Z,41.27
2018-06-08T06:27:51.497Z,40.20
2018-06-08T06:30:18.673Z,47.07
2018-06-08T06:32:45.810Z,47.87
2018-06-08T06:35:12.917Z,51.53
2018-06-08T06:37:40.321Z,50.83
2018-06-08T06:40:07.436Z,51.60
2018-06-08T06:42:34.565Z,50.47
2018-06-08T06:45:01.679Z,51.80
2018-06-08T06:47:28.854Z,50.43
2018-06-08T06:49:55.973Z,50.80
2018-06-08T06:52:23.080Z,50.27
2018-06-08T06:54:50.188Z,50.47
2018-06-08T06:57:17.337Z,49.20
2018-06-08T06:59:44.464Z,51.07
2018-06-08T07:02:11.585Z,51.10
2018-06-08T07:04:38.686Z,51.57
2018-06-08T07:07:05.852Z,52.93
2018-06-08T07:09:32.979Z,50.27
2018-06-08T07:12:00.382Z,50.93
2018-06-08T07:14:27.342Z,49.70
2018-06-08T07:16:54.488Z,51.97
2018-06-08T07:19:21.640Z,52.00
2018-06-08T07:21:48.737Z,50.43
2018-06-08T07:24:16.040Z,50.90
2018-06-08T07:26:43.126Z,50.10
2018-06-08T07:29:10.255Z,49.83
2018-06-08T07:31:37.463Z,49.50
2018-06-08T07:34:04.594Z,47.17
2018-06-08T07:36:31.717Z,45.70
2018-06-08T07:38:58.835Z,50.73
2018-06-08T07:41:25.952Z,49.80
2018-06-08T07:43:53.062Z,47.47
2018-06-08T07:46:20.169Z,47.00
2018-06-08T07:48:47.297Z,47.17
2018-06-08T07:51:14.412Z,48.50
2018-06-08T07:53:41.598Z,48.10
2018-06-08T07:56:08.713Z,49.77
2018-06-08T07:58:36.317Z,48.10
2018-06-08T08:01:03.433Z,48.77
2018-06-08T08:03:30.557Z,48.40
2018-06-08T08:05:57.661Z,49.83
2018-06-08T08:08:24.782Z,49.50
2018-06-08T08:10:51.888Z,48.77
2018-06-08T08:13:19.017Z,49.50
2018-06-08T08:15:46.151Z,54.00
2018-06-08T08:18:13.280Z,56.00
2018-06-08T08:20:40.389Z,57.47
2018-06-08T08:23:07.560Z,57.30
2018-06-08T08:25:34.718Z,55.40
2018-06-08T08:28:01.829Z,55.83
2018-06-08T08:30:28.972Z,55.93
2018-06-08T08:32:56.095Z,54.20
2018-06-08T08:35:23.208Z,53.27
2018-06-08T08:37:50.324Z,55.53
2018-06-08T08:40:17.477Z,53.07
2018-06-08T08:42:44.624Z,52.80
2018-06-08T08:45:11.762Z,52.90
2018-06-08T08:47:38.922Z,48.00
2018-06-08T08:50:06.043Z,42.40
2018-06-08T08:52:33.184Z,41.43
2018-06-08T08:55:00.300Z,45.17
2018-06-08T08:57:27.405Z,45.20
2018-06-08T08:59:54.526Z,44.70
2018-06-08T09:02:21.635Z,43.07
2018-06-08T09:04:49.120Z,43.87
2018-06-08T09:07:16.333Z,43.47
2018-06-08T09:09:43.488Z,40.43
2018-06-08T09:12:10.680Z,44.37
2018-06-08T09:14:37.795Z,41.33
2018-06-08T09:17:04.982Z,43.10
2018-06-08T09:19:32.089Z,44.60
2018-06-08T09:21:59.237Z,45.70
2018-06-08T09:24:26.365Z,43.53
2018-06-08T09:26:53.584Z,38.93
2018-06-08T09:29:20.736Z,42.03
2018-06-08T09:31:47.951Z,42.40
2018-06-08T09:34:15.074Z,39.93
2018-06-08T09:36:42.173Z,38.60
2018-06-08T09:39:09.301Z,38.30
2018-06-08T09:41:36.429Z,37.33
2018-06-08T09:44:03.544Z,34.50
2018-06-08T09:46:30.695Z,34.67
2018-06-08T09:48:57.807Z,32.57
2018-06-08T09:51:24.898Z,34.97
2018-06-08T09:53:52.012Z,33.80
2018-06-08T09:56:19.142Z,32.93
2018-06-08T09:58:46.357Z,32.47
2018-06-08T10:01:13.473Z,34.70
2018-06-08T10:03:40.919Z,35.03
2018-06-08T10:06:08.145Z,35.73
2018-06-08T10:08:35.282Z,36.60
2018-06-08T10:11:02.504Z,35.90
2018-06-08T10:13:29.617Z,36.87
2018-06-08T10:15:56.744Z,38.40
2018-06-08T10:18:23.860Z,40.33
2018-06-08T10:20:51.005Z,37.13
2018-06-08T10:23:18.116Z,37.53
2018-06-08T10:25:45.494Z,37.70
2018-06-08T10:28:12.656Z,39.03
2018-06-08T10:30:39.777Z,38.80
2018-06-08T10:33:06.918Z,36.20
2018-06-08T10:35:34.020Z,36.70
2018-06-08T10:38:01.148Z,35.40
2018-06-08T10:40:28.260Z,36.07
2018-06-08T10:42:55.421Z,38.97
2018-06-08T10:45:22.580Z,38.20
2018-06-08T10:47:49.689Z,37.03
2018-06-08T10:50:16.825Z,33.67
2018-06-08T10:52:43.921Z,34.10
2018-06-08T10:55:11.036Z,33.40
2018-06-08T10:57:38.153Z,32.33
2018-06-08T11:00:05.265Z,29.80
2018-06-08T11:02:32.380Z,30.70
2018-06-08T11:04:59.492Z,31.80
2018-06-08T11:07:26.703Z,29.13
2018-06-08T11:09:53.801Z,31.23
2018-06-08T11:12:21.043Z,30.20
2018-06-08T11:14:48.157Z,31.10
2018-06-08T11:17:15.301Z,31.73
2018-06-08T11:19:42.418Z,31.37
2018-06-08T11:22:09.518Z,31.27
2018-06-08T11:24:36.641Z,31.60
2018-06-08T11:27:03.744Z,32.07
2018-06-08T11:29:30.860Z,33.47
2018-06-08T11:31:57.973Z,32.27
2018-06-08T11:34:25.137Z,34.57
2018-06-08T11:36:52.285Z,35.63
2018-06-08T11:39:19.450Z,38.30
2018-06-08T11:41:46.500Z,39.20
2018-06-08T11:44:13.636Z,34.40
2018-06-08T11:46:40.786Z,38.20
2018-06-08T11:49:07.888Z,36.80
2018-06-08T11:51:34.996Z,35.07
2018-06-08T11:54:02.125Z,35.47
2018-06-08T11:56:29.291Z,36.93
2018-06-08T11:58:56.411Z,37.10
2018-06-08T12:01:23.550Z,31.97
2018-06-08T12:03:50.687Z,36.73
2018-06-08T12:06:17.776Z,35.03
2018-06-08T12:08:44.890Z,33.73
2018-06-08T12:11:12.361Z,34.87
2018-06-08T12:13:39.450Z,34.63
2018-06-08T12:16:06.690Z,31.40
2018-06-08T12:18:33.868Z,31.60
2018-06-08T12:21:00.976Z,30.10
2018-06-08T12:23:28.088Z,29.30
2018-06-08T12:25:55.222Z,34.60
2018-06-08T12:28:22.341Z,27.93
2018-06-08T12:30:49.607Z,30.37
2018-06-08T12:33:16.620Z,27.30
2018-06-08T12:35:43.723Z,26.77
2018-06-08T12:38:10.849Z,24.97
2018-06-08T12:40:38.037Z,22.17
2018-06-08T12:43:05.195Z,23.53
2018-06-08T12:45:32.301Z,24.93
2018-06-08T12:47:59.425Z,26.20
2018-06-08T12:50:26.517Z,26.70
2018-06-08T12:52:53.661Z,27.07
2018-06-08T12:55:20.784Z,25.10
2018-06-08T12:57:47.891Z,27.10
2018-06-08T13:00:14.993Z,26.13
2018-06-08T13:02:42.137Z,27.20
2018-06-08T13:05:09.243Z,24.60
2018-06-08T13:07:36.378Z,26.23
2018-06-08T13:10:03.518Z,24.80
2018-06-08T13:12:30.618Z,26.43
2018-06-08T13:14:57.769Z,24.90
2018-06-08T13:17:24.940Z,27.70
2018-06-08T13:19:52.078Z,28.00
2018-06-08T13:22:19.193Z,26.30
2018-06-08T13:24:46.289Z,27.97
2018-06-08T13:27:13.437Z,26.43
2018-06-08T13:29:40.572Z,26.50
2018-06-08T13:32:08.567Z,25.20
2018-06-08T13:34:35.665Z,25.13
2018-06-08T13:37:02.825Z,24.83
2018-06-08T13:39:30.067Z,22.87
2018-06-08T13:41:57.193Z,24.77
2018-06-08T13:44:24.305Z,24.30
2018-06-08T13:46:51.534Z,24.60
2018-06-08T13:49:19.335Z,26.73
2018-06-08T13:51:46.455Z,25.13
2018-06-08T13:54:13.686Z,24.70
2018-06-08T13:56:40.811Z,23.80
2018-06-08T13:59:07.979Z,24.93
2018-06-08T14:01:35.073Z,24.00
2018-06-08T14:04:02.517Z,25.30
2018-06-08T14:06:29.613Z,23.67
2018-06-08T14:08:56.729Z,23.00
2018-06-08T14:11:23.830Z,22.37
2018-06-08T14:13:50.965Z,22.30
2018-06-08T14:16:18.110Z,21.57
2018-06-08T14:18:45.301Z,24.33
2018-06-08T14:21:12.408Z,25.30
2018-06-08T14:23:39.560Z,23.10
2018-06-08T14:26:06.676Z,24.80
2018-06-08T14:28:33.821Z,23.07
2018-06-08T14:31:00.941Z,21.97
2018-06-08T14:33:28.052Z,23.23
2018-06-08T14:35:55.220Z,22.33
2018-06-08T14:38:22.415Z,21.13
2018-06-08T14:40:49.480Z,22.50
2018-06-08T14:43:16.648Z,23.27
2018-06-08T14:45:43.796Z,23.13
2018-06-08T14:48:10.908Z,23.10
2018-06-08T14:50:38.100Z,21.70
2018-06-08T14:53:05.246Z,22.17
2018-06-08T14:55:32.370Z,21.57
2018-06-08T14:57:59.486Z,21.33
2018-06-08T15:00:26.614Z,23.43
2018-06-08T15:02:53.737Z,22.60
2018-06-08T15:05:20.884Z,22.57
2018-06-08T15:07:48.073Z,22.30
2018-06-08T15:10:15.184Z,21.93
2018-06-08T15:12:42.314Z,21.07
2018-06-08T15:15:09.441Z,21.43
2018-06-08T15:17:36.652Z,21.80
2018-06-08T15:20:03.819Z,23.27
2018-06-08T15:22:30.977Z,23.00
2018-06-08T15:24:58.117Z,21.60
2018-06-08T15:27:25.266Z,23.40
2018-06-08T15:29:52.446Z,21.50
2018-06-08T15:32:19.560Z,22.07
2018-06-08T15:34:46.690Z,21.33
2018-06-08T15:37:13.847Z,19.20
2018-06-08T15:39:40.957Z,20.20
2018-06-08T15:42:08.073Z,20.33
2018-06-08T15:44:35.226Z,21.80
2018-06-08T15:47:02.345Z,22.23
2018-06-08T15:49:29.472Z,24.57
2018-06-08T15:51:56.594Z,21.60
2018-06-08T15:54:23.736Z,23.40
2018-06-08T15:56:50.861Z,21.60
2018-06-08T15:59:17.985Z,23.63
2018-06-08T16:01:45.109Z,23.80
2018-06-08T16:04:12.261Z,24.93
2018-06-08T16:06:39.375Z,22.37
2018-06-08T16:09:06.597Z,22.23
2018-06-08T16:11:33.752Z,24.90
2018-06-08T16:14:01.021Z,26.03
2018-06-08T16:16:28.202Z,27.07
2018-06-08T16:18:55.431Z,27.67
2018-06-08T16:21:22.548Z,26.03
2018-06-08T16:23:50.184Z,27.57
2018-06-08T16:26:17.314Z,27.17
2018-06-08T16:28:44.569Z,26.47
2018-06-08T16:31:11.688Z,27.70
2018-06-08T16:33:38.793Z,28.13
2018-06-08T16:36:05.954Z,26.50
2018-06-08T16:38:33.116Z,26.10
2018-06-08T16:41:00.228Z,27.60
2018-06-08T16:43:27.509Z,27.40
2018-06-08T16:45:54.622Z,31.37
2018-06-08T16:48:21.745Z,28.50
2018-06-08T16:50:48.879Z,27.57
2018-06-08T16:53:15.994Z,27.33
2018-06-08T16:55:43.097Z,26.67
2018-06-08T16:58:10.204Z,28.87
2018-06-08T17:00:37.481Z,29.07
2018-06-08T17:03:04.685Z,30.17
2018-06-08T17:05:31.801Z,30.13
2018-06-08T17:07:58.917Z,30.30
2018-06-08T17:10:26.445Z,32.17
2018-06-08T17:12:54.072Z,29.97
2018-06-08T17:15:21.193Z,30.27
2018-06-08T17:17:48.311Z,30.60
2018-06-08T17:20:15.424Z,30.13
2018-06-08T17:22:42.537Z,32.07
2018-06-08T17:25:09.652Z,31.60
2018-06-08T17:27:36.785Z,33.77
2018-06-08T17:30:04.037Z,32.27
2018-06-08T17:32:31.121Z,32.13
2018-06-08T17:34:58.248Z,33.07
2018-06-08T17:37:25.381Z,32.77
2018-06-08T17:39:53.367Z,31.97
2018-06-08T17:42:20.482Z,33.60
2018-06-08T17:44:47.606Z,33.60
2018-06-08T17:47:14.821Z,34.60
2018-06-08T17:49:41.932Z,34.17
2018-06-08T17:52:09.069Z,34.70
2018-06-08T17:54:36.189Z,34.53
2018-06-08T17:57:03.352Z,35.30
2018-06-08T17:59:30.439Z,33.60
2018-06-08T18:01:57.558Z,34.80
2018-06-08T18:04:24.661Z,34.53
2018-06-08T18:06:51.820Z,36.67
2018-06-08T18:09:18.936Z,37.10
2018-06-08T18:11:46.097Z,35.60
2018-06-08T18:14:13.213Z,35.90
2018-06-08T18:16:40.446Z,38.63
2018-06-08T18:19:07.569Z,38.50
2018-06-08T18:21:34.688Z,37.83
2018-06-08T18:24:01.837Z,38.93
2018-06-08T18:26:28.940Z,38.20
2018-06-08T18:28:56.056Z,41.00
2018-06-08T18:31:23.185Z,41.87
2018-06-08T18:33:50.306Z,39.90
2018-06-08T18:36:17.488Z,40.57
2018-06-08T18:38:44.639Z,41.63
2018-06-08T18:41:11.876Z,42.27
2018-06-08T18:43:38.995Z,42.10
2018-06-08T18:46:06.108Z,41.33
2018-06-08T18:48:33.293Z,40.20
2018-06-08T18:51:00.413Z,40.40
2018-06-08T18:53:27.803Z,40.20
2018-06-08T18:55:54.917Z,40.90
2018-06-08T18:58:22.042Z,40.13
2018-06-08T19:00:49.236Z,41.30
2018-06-08T19:03:16.385Z,41.30
2018-06-08T19:05:43.513Z,41.83
2018-06-08T19:08:10.613Z,42.17
2018-06-08T19:10:37.779Z,42.30
2018-06-08T19:13:04.913Z,42.10
2018-06-08T19:15:32.045Z,41.80
2018-06-08T19:17:59.154Z,42.07
2018-06-08T19:20:26.292Z,43.00
2018-06-08T19:22:53.456Z,42.57
2018-06-08T19:25:20.585Z,44.40
2018-06-08T19:27:47.734Z,41.60
2018-06-08T19:30:14.852Z,44.20
2018-06-08T19:32:41.973Z,43.10
2018-06-08T19:35:09.127Z,43.13
2018-06-08T19:37:36.255Z,43.97
2018-06-08T19:40:03.389Z,43.60
2018-06-08T19:42:30.503Z,42.87
2018-06-08T19:44:57.660Z,43.00
2018-06-08T19:47:24.776Z,43.53
2018-06-08T19:49:51.968Z,45.13
2018-06-08T19:52:19.093Z,45.53
2018-06-08T19:54:46.292Z,47.00
2018-06-08T19:57:13.393Z,46.50
2018-06-08T19:59:40.517Z,46.93
2018-06-08T20:02:07.632Z,46.30
2018-06-08T20:04:34.853Z,46.10
2018-06-08T20:07:01.987Z,46.50
2018-06-08T20:09:29.230Z,47.60
2018-06-08T20:11:56.393Z,46.53
2018-06-08T20:14:23.500Z,46.00
2018-06-08T20:16:50.596Z,47.03
2018-06-08T20:19:17.744Z,47.93
2018-06-08T20:21:44.881Z,46.80
2018-06-08T20:24:11.997Z,46.80
2018-06-08T20:26:39.194Z,48.73
2018-06-08T20:29:06.332Z,46.10
2018-06-08T20:31:33.478Z,47.10
2018-06-08T20:34:00.599Z,46.87
2018-06-08T20:36:27.705Z,48.37
2018-06-08T20:38:54.833Z,47.53
2018-06-08T20:41:21.956Z,47.17
2018-06-08T20:43:49.085Z,48.37
2018-06-08T20:46:16.182Z,47.50
2018-06-08T20:48:43.300Z,48.67
2018-06-08T20:51:10.439Z,47.60
2018-06-08T20:53:37.596Z,49.87
2018-06-08T20:56:04.809Z,50.00
2018-06-08T20:58:31.919Z,50.37
2018-06-08T21:00:59.035Z,49.27
2018-06-08T21:03:26.165Z,51.67
2018-06-08T21:05:53.533Z,52.20
2018-06-08T21:08:20.651Z,53.80
2018-06-08T21:10:47.762Z,51.43
2018-06-08T21:13:14.874Z,51.00
2018-06-08T21:15:42.010Z,49.50
2018-06-08T21:18:09.143Z,49.60
2018-06-08T21:20:36.262Z,49.97
2018-06-08T21:23:03.362Z,50.33
2018-06-08T21:25:30.492Z,50.60
2018-06-08T21:27:57.617Z,50.70
2018-06-08T21:30:24.725Z,49.90
2018-06-08T21:32:51.840Z,50.97
2018-06-08T21:35:19.004Z,52.93
2018-06-08T21:37:46.225Z,52.77
2018-06-08T21:40:13.381Z,53.77
2018-06-08T21:42:40.529Z,50.87
2018-06-08T21:45:07.644Z,51.70
2018-06-08T21:47:34.765Z,51.27
2018-06-08T21:50:01.909Z,50.80
2018-06-08T21:52:29.020Z,49.40
2018-06-08T21:54:56.127Z,50.90
2018-06-08T21:57:23.238Z,52.57
2018-06-08T21:59:50.392Z,50.83
2018-06-08T22:02:17.520Z,50.07
2018-06-08T22:04:44.659Z,47.93
2018-06-08T22:07:11.861Z,50.07
2018-06-08T22:09:38.981Z,52.80
2018-06-08T22:12:06.156Z,51.07
2018-06-08T22:14:33.286Z,50.30
2018-06-08T22:17:00.401Z,50.53
2018-06-08T22:19:27.514Z,52.83
2018-06-08T22:21:54.640Z,50.97
2018-06-08T22:24:21.758Z,55.30
2018-06-08T22:26:48.873Z,52.47
2018-06-08T22:29:15.984Z,54.43
2018-06-08T22:31:43.097Z,53.50
2018-06-08T22:34:10.197Z,53.97
2018-06-08T22:36:37.323Z,53.00
2018-06-08T22:39:05.797Z,53.43
2018-06-08T22:41:32.917Z,54.10
2018-06-08T22:44:00.031Z,54.97
2018-06-08T22:46:27.161Z,55.77
2018-06-08T22:48:54.285Z,54.50
2018-06-08T22:51:21.436Z,54.00
2018-06-08T22:53:48.614Z,54.97
2018-06-08T22:56:17.523Z,55.10
2018-06-08T22:58:44.636Z,54.00
2018-06-08T23:01:11.753Z,55.50
2018-06-08T23:03:38.888Z,56.60
2018-06-08T23:06:06.083Z,55.93
2018-06-08T23:08:33.193Z,55.37
2018-06-08T23:11:00.298Z,55.20
2018-06-08T23:13:27.428Z,55.17
2018-06-08T23:15:54.564Z,56.87
2018-06-08T23:18:21.775Z,54.13
2018-06-08T23:20:48.873Z,55.90
2018-06-08T23:23:15.969Z,55.30
2018-06-08T23:25:43.081Z,54.07
2018-06-08T23:28:10.237Z,52.83
2018-06-08T23:30:37.353Z,52.80
2018-06-08T23:33:04.464Z,54.73
2018-06-08T23:35:31.578Z,52.23
2018-06-08T23:37:58.678Z,52.80
2018-06-08T23:40:26.902Z,53.60
2018-06-08T23:42:54.018Z,54.20
2018-06-08T23:45:21.208Z,52.57
2018-06-08T23:47:48.326Z,53.80
2018-06-08T23:50:15.505Z,54.60
2018-06-08T23:52:42.662Z,54.17
2018-06-08T23:55:09.822Z,54.23
2018-06-08T23:57:36.968Z,54.83
